Time;durP1;ratioP1;P1;durP2;ratioP2;P2;SDS_P1;SDS_P2;PMS_P1;PMS_P2;Temp;Humidity;BMP_temperature;BMP_pressure;BME280_temperature;BME280_humidity;BME280_pressure;Samples;Min_cycle;Max_cycle;Signal;HPM_P1;HPM_P2
2022/03/22 00:00:12;;;;;;;20.20;15.02;;;;;;;7.23;75.36;102331.31;675381;29;1488;-77
2022/03/22 00:00:33;;;;;;;21.17;15.50;;;;;;;7.14;75.09;102337.97;674120;29;1180;-78
2022/03/22 00:00:55;;;;;;;19.95;15.40;;;;;;;7.15;74.74;102352.72;674925;29;1414;-77
2022/03/22 00:01:16;;;;;;;19.83;15.13;;;;;;;7.13;75.07;102333.59;673285;29;4449;-79
2022/03/22 00:01:36;;;;;;;19.17;14.50;;;;;;;7.12;75.12;102350.00;676548;29;1190;-78
2022/03/22 00:01:57;;;;;;;19.47;14.80;;;;;;;7.08;76.79;102345.53;676985;29;1047;-78
2022/03/22 00:02:18;;;;;;;20.08;15.18;;;;;;;7.08;76.27;102342.94;674251;29;1741;-77
2022/03/22 00:02:38;;;;;;;20.95;15.38;;;;;;;7.12;75.79;102350.00;669447;29;1230;-78
2022/03/22 00:02:59;;;;;;;17.80;14.38;;;;;;;7.23;76.53;102334.81;674281;29;1462;-77
2022/03/22 00:03:21;;;;;;;18.80;15.00;;;;;;;7.22;75.77;102345.16;676642;29;1237;-78
2022/03/22 00:03:46;;;;;;;18.50;14.70;;;;;;;7.27;75.59;102328.88;672187;29;1727;-78
2022/03/22 00:04:06;;;;;;;19.17;15.18;;;;;;;7.29;77.30;102344.53;670433;29;4321;-77
2022/03/22 00:04:27;;;;;;;19.40;14.73;;;;;;;7.23;78.44;102342.59;671550;29;2401;-78
2022/03/22 00:04:47;;;;;;;18.67;14.40;;;;;;;7.22;77.50;102327.81;667160;29;2660;-77
2022/03/22 00:05:08;;;;;;;17.83;14.02;;;;;;;7.28;77.55;102350.56;669607;29;1282;-79
2022/03/22 00:05:29;;;;;;;18.00;14.02;;;;;;;7.25;76.44;102332.25;671530;29;1295;-79
2022/03/22 00:05:49;;;;;;;17.90;14.17;;;;;;;7.29;76.52;102331.53;673413;29;1070;-78
2022/03/22 00:06:10;;;;;;;19.02;14.30;;;;;;;7.23;77.95;102340.00;675988;29;2211;-78
2022/03/22 00:06:31;;;;;;;18.13;14.32;;;;;;;7.28;76.86;102341.06;673186;29;1729;-77
2022/03/22 00:06:52;;;;;;;18.48;14.57;;;;;;;7.31;76.43;102350.66;677503;29;1858;-77
2022/03/22 00:07:15;;;;;;;19.23;14.48;;;;;;;7.36;75.82;102345.66;676513;29;4369;-78
2022/03/22 00:07:38;;;;;;;18.25;14.23;;;;;;;7.46;76.28;102358.13;675301;29;1305;-79
2022/03/22 00:08:00;;;;;;;18.27;14.63;;;;;;;7.39;76.38;102357.03;672193;29;1448;-78
2022/03/22 00:08:21;;;;;;;19.10;14.57;;;;;;;7.31;76.78;102346.38;668985;29;1765;-78
2022/03/22 00:08:43;;;;;;;18.45;14.35;;;;;;;7.28;75.37;102345.34;673421;29;1409;-77
2022/03/22 00:09:04;;;;;;;19.48;14.43;;;;;;;7.22;75.13;102347.75;674533;29;1389;-78
2022/03/22 00:09:25;;;;;;;19.38;14.70;;;;;;;7.36;75.59;102354.31;674853;29;1373;-77
2022/03/22 00:09:45;;;;;;;18.90;14.17;;;;;;;7.40;75.76;102340.59;674440;29;1252;-78
2022/03/22 00:10:06;;;;;;;18.42;14.45;;;;;;;7.34;76.30;102340.38;674443;29;4321;-78
2022/03/22 00:10:31;;;;;;;17.85;14.68;;;;;;;7.26;75.85;102336.63;673936;29;1514;-77
2022/03/22 00:10:51;;;;;;;18.75;14.23;;;;;;;7.36;75.54;102343.03;674513;29;1372;-77
2022/03/22 00:11:13;;;;;;;18.83;14.20;;;;;;;7.34;77.49;102345.59;674689;29;1544;-78
2022/03/22 00:11:34;;;;;;;20.52;14.35;;;;;;;7.29;77.56;102344.53;673933;29;1697;-77
2022/03/22 00:11:56;;;;;;;19.90;14.97;;;;;;;7.22;77.78;102335.63;671338;29;1322;-78
2022/03/22 00:12:16;;;;;;;20.23;14.70;;;;;;;7.23;77.21;102342.59;672695;29;1373;-78
2022/03/22 00:12:41;;;;;;;19.85;14.63;;;;;;;7.21;77.63;102332.97;674874;29;1142;-77
2022/03/22 00:13:03;;;;;;;18.77;14.30;;;;;;;7.22;77.70;102332.16;675525;29;4372;-77
2022/03/22 00:13:25;;;;;;;18.70;13.98;;;;;;;7.28;77.20;102329.75;674621;29;1605;-78
2022/03/22 00:13:45;;;;;;;19.02;14.50;;;;;;;7.25;77.96;102329.66;675576;29;1387;-78
2022/03/22 00:14:08;;;;;;;17.95;14.50;;;;;;;7.21;76.55;102338.16;676659;29;1525;-78
2022/03/22 00:14:28;;;;;;;18.15;14.07;;;;;;;7.29;76.82;102341.94;676379;29;2002;-78
2022/03/22 00:14:49;;;;;;;18.03;13.90;;;;;;;7.39;75.16;102332.72;675837;29;1281;-78
2022/03/22 00:15:11;;;;;;;18.17;14.23;;;;;;;7.41;75.57;102341.50;674508;29;1381;-77
2022/03/22 00:15:33;;;;;;;18.65;14.18;;;;;;;7.42;74.15;102344.16;673403;29;1482;-78
2022/03/22 00:15:55;;;;;;;20.05;14.93;;;;;;;7.35;76.07;102333.47;674065;29;1255;-78
2022/03/22 00:16:16;;;;;;;19.20;14.55;;;;;;;7.32;76.86;102339.44;671685;29;4258;-78
2022/03/22 00:16:37;;;;;;;17.53;14.03;;;;;;;7.24;77.52;102336.56;673750;29;1424;-78
2022/03/22 00:16:57;;;;;;;19.10;14.55;;;;;;;7.16;78.14;102338.88;670674;29;1557;-77
2022/03/22 00:17:18;;;;;;;18.87;14.37;;;;;;;7.11;77.52;102339.56;670809;29;1159;-78
2022/03/22 00:17:39;;;;;;;19.13;14.02;;;;;;;7.09;77.58;102336.91;669756;29;1375;-78
2022/03/22 00:18:00;;;;;;;19.07;14.17;;;;;;;7.07;78.81;102338.53;672517;29;1220;-78
2022/03/22 00:18:23;;;;;;;17.73;13.80;;;;;;;7.02;78.16;102334.00;674653;29;1035;-77
2022/03/22 00:18:47;;;;;;;18.10;14.52;;;;;;;6.95;77.18;102335.50;673924;29;1388;-78
2022/03/22 00:19:07;;;;;;;18.70;14.07;;;;;;;6.92;76.96;102341.50;673024;29;4324;-78
2022/03/22 00:19:27;;;;;;;18.53;13.80;;;;;;;6.90;77.26;102344.84;674389;29;1674;-78
2022/03/22 00:19:48;;;;;;;18.43;14.47;;;;;;;6.86;77.61;102341.25;676613;29;1539;-78
2022/03/22 00:20:10;;;;;;;17.87;14.00;;;;;;;6.93;77.25;102344.97;676114;29;1392;-77
2022/03/22 00:20:31;;;;;;;16.65;13.57;;;;;;;6.98;78.46;102340.84;675212;29;4402;-77
2022/03/22 00:20:52;;;;;;;17.77;14.18;;;;;;;6.95;78.67;102335.50;675319;29;1346;-77
2022/03/22 00:21:13;;;;;;;18.80;14.50;;;;;;;6.90;78.29;102342.25;676876;29;1501;-77
2022/03/22 00:21:35;;;;;;;18.65;14.43;;;;;;;6.92;77.48;102337.97;674581;29;1425;-77
2022/03/22 00:21:55;;;;;;;18.88;13.85;;;;;;;7.06;77.33;102348.91;674194;29;1427;-77
2022/03/22 00:22:16;;;;;;;17.77;14.13;;;;;;;7.11;77.56;102345.63;675210;29;4267;-78
2022/03/22 00:22:40;;;;;;;19.15;14.85;;;;;;;7.05;78.41;102332.41;677323;29;1341;-78
2022/03/22 00:23:00;;;;;;;19.08;14.32;;;;;;;6.97;78.86;102344.25;675218;29;1178;-77
2022/03/22 00:23:21;;;;;;;18.23;13.88;;;;;;;7.00;77.82;102339.16;670933;29;1627;-77
2022/03/22 00:23:44;;;;;;;16.97;14.00;;;;;;;7.19;76.53;102335.50;675047;29;1501;-77
2022/03/22 00:24:05;;;;;;;17.00;14.18;;;;;;;7.21;77.10;102338.16;676840;29;1265;-78
2022/03/22 00:24:25;;;;;;;18.70;14.57;;;;;;;7.16;76.09;102345.81;677227;29;1058;-77
2022/03/22 00:24:46;;;;;;;17.85;14.63;;;;;;;7.09;75.83;102342.09;674897;29;1911;-77
2022/03/22 00:25:09;;;;;;;18.17;14.33;;;;;;;7.16;75.92;102345.81;672906;29;4335;-77
2022/03/22 00:25:30;;;;;;;18.60;14.35;;;;;;;7.33;75.61;102338.59;674730;29;1297;-78
2022/03/22 00:25:50;;;;;;;19.83;14.43;;;;;;;7.36;75.07;102337.84;675154;29;1450;-78
2022/03/22 00:26:11;;;;;;;19.80;14.70;;;;;;;7.25;76.70;102335.72;676865;29;1214;-78
2022/03/22 00:26:31;;;;;;;18.23;14.10;;;;;;;7.19;76.57;102337.25;676636;29;1370;-77
2022/03/22 00:26:54;;;;;;;16.70;13.27;;;;;;;7.12;76.09;102342.22;676028;29;1671;-78
2022/03/22 00:27:15;;;;;;;17.52;13.70;;;;;;;7.19;75.77;102340.72;676004;29;1271;-78
2022/03/22 00:27:55;;;;;;;17.67;14.27;;;;;;;7.31;75.29;102350.66;674661;29;1483;-77
2022/03/22 00:28:16;;;;;;;17.95;14.18;;;;;;;7.25;75.30;102345.25;672926;29;4292;-78
2022/03/22 00:28:36;;;;;;;17.48;14.00;;;;;;;7.18;76.43;102338.94;674020;29;1322;-78
2022/03/22 00:28:58;;;;;;;18.17;14.13;;;;;;;7.15;77.09;102339.72;674094;29;1646;-78
2022/03/22 00:29:21;;;;;;;18.00;13.93;;;;;;;7.16;76.36;102338.88;669671;29;1557;-77
2022/03/22 00:29:42;;;;;;;17.88;13.55;;;;;;;7.24;75.74;102341.78;668277;29;1168;-77
2022/03/22 00:30:02;;;;;;;19.10;14.17;;;;;;;7.23;76.63;102342.59;668312;29;1468;-78
2022/03/22 00:30:27;;;;;;;18.17;14.15;;;;;;;7.13;76.48;102336.19;670423;29;1583;-78
2022/03/22 00:30:50;;;;;;;17.40;14.20;;;;;;;7.07;77.27;102346.34;673016;29;1407;-80
2022/03/22 00:31:11;;;;;;;18.65;14.20;;;;;;;7.01;77.04;102340.94;674488;29;4491;-78
2022/03/22 00:31:35;;;;;;;19.98;14.77;;;;;;;6.95;77.61;102345.88;675858;29;1350;-78
2022/03/22 00:31:56;;;;;;;18.13;14.02;;;;;;;7.04;76.90;102341.03;674364;29;1688;-77
2022/03/22 00:32:17;;;;;;;18.67;13.65;;;;;;;7.22;75.58;102340.81;672062;29;1203;-78
2022/03/22 00:32:40;;;;;;;18.13;13.95;;;;;;;7.35;74.88;102344.75;669858;29;1191;-78
2022/03/22 00:33:04;;;;;;;18.25;13.88;;;;;;;7.35;75.00;102341.25;670313;29;1316;-78
2022/03/22 00:33:24;;;;;;;18.73;14.02;;;;;;;7.27;76.25;102349.69;671379;29;1281;-77
2022/03/22 00:33:47;;;;;;;17.57;13.67;;;;;;;7.18;76.74;102338.06;670582;29;1115;-77
2022/03/22 00:34:11;;;;;;;17.58;13.88;;;;;;;7.15;76.62;102347.50;671282;29;4310;-77
2022/03/22 00:34:32;;;;;;;18.60;13.35;;;;;;;7.08;77.15;102344.66;675776;29;1529;-78
2022/03/22 00:34:52;;;;;;;18.97;13.97;;;;;;;7.15;76.45;102339.72;677132;29;1712;-78
2022/03/22 00:35:13;;;;;;;17.40;13.70;;;;;;;7.21;76.09;102344.25;676500;29;1108;-78
2022/03/22 00:35:39;;;;;;;17.53;13.60;;;;;;;7.10;76.07;102354.28;677317;29;1280;-77
2022/03/22 00:35:59;;;;;;;17.98;14.10;;;;;;;7.20;75.34;102339.91;676267;29;1469;-77
2022/03/22 00:36:20;;;;;;;17.23;13.82;;;;;;;7.25;75.43;102342.66;675142;29;1371;-77
2022/03/22 00:36:41;;;;;;;17.73;13.80;;;;;;;7.15;76.37;102342.31;673341;29;1983;-78
2022/03/22 00:37:01;;;;;;;18.92;14.32;;;;;;;7.11;77.22;102342.16;672722;29;4322;-78
2022/03/22 00:37:21;;;;;;;18.17;14.40;;;;;;;7.03;78.58;102341.88;669001;29;1358;-77
2022/03/22 00:37:42;;;;;;;19.23;14.10;;;;;;;6.96;76.90;102358.06;674230;29;1426;-78
2022/03/22 00:38:14;;;;;;;19.42;13.50;;;;;;;7.11;76.67;102352.56;669191;29;1332;-78
2022/03/22 00:38:34;;;;;;;18.00;13.75;;;;;;;7.26;75.84;102345.31;666442;29;1449;-77
2022/03/22 00:38:55;;;;;;;17.50;14.10;;;;;;;7.15;75.54;102342.31;669268;29;1345;-77
2022/03/22 00:39:18;;;;;;;18.30;14.50;;;;;;;7.21;75.27;102344.25;667915;29;4884;-77
2022/03/22 00:39:38;;;;;;;18.30;14.23;;;;;;;7.15;76.62;102344.91;674003;29;1388;-78
2022/03/22 00:39:59;;;;;;;20.35;14.52;;;;;;;7.06;77.69;102344.59;676271;29;4339;-77
2022/03/22 00:40:21;;;;;;;20.63;14.27;;;;;;;6.99;76.89;102340.88;677688;29;1181;-78
2022/03/22 00:40:44;;;;;;;18.05;13.95;;;;;;;6.92;76.65;102340.59;678623;29;1970;-78
2022/03/22 00:41:08;;;;;;;17.30;13.82;;;;;;;7.02;76.68;102340.13;675386;29;1653;-78
2022/03/22 00:41:28;;;;;;;18.40;13.60;;;;;;;7.19;75.26;102345.03;671561;29;1343;-78
2022/03/22 00:41:48;;;;;;;18.23;13.95;;;;;;;7.13;77.38;102340.47;674954;29;1567;-77
2022/03/22 00:42:10;;;;;;;17.83;14.13;;;;;;;7.07;77.29;102345.47;676806;29;1372;-78
2022/03/22 00:42:31;;;;;;;18.83;13.82;;;;;;;6.94;77.28;102345.03;676413;29;1256;-78
2022/03/22 00:42:53;;;;;;;19.07;13.90;;;;;;;6.92;76.22;102344.09;672802;29;976;-78
2022/03/22 00:43:14;;;;;;;18.67;14.32;;;;;;;6.90;76.78;102343.13;670133;29;4397;-78
2022/03/22 00:43:35;;;;;;;17.37;13.77;;;;;;;7.05;76.20;102347.13;671455;29;1661;-78
2022/03/22 00:43:55;;;;;;;18.15;13.32;;;;;;;7.05;75.96;102340.22;671366;29;1886;-78
2022/03/22 00:44:16;;;;;;;18.50;13.87;;;;;;;7.07;76.40;102343.75;676490;28;1106;-78
2022/03/22 00:44:38;;;;;;;18.33;14.40;;;;;;;7.03;75.97;102336.66;673977;29;1348;-78
2022/03/22 00:44:58;;;;;;;18.95;14.43;;;;;;;7.10;75.40;102343.88;676176;29;1899;-77
2022/03/22 00:45:22;;;;;;;19.37;14.13;;;;;;;7.03;75.73;102341.88;676479;29;903;-78
2022/03/22 00:45:43;;;;;;;18.88;13.82;;;;;;;7.00;76.41;102344.34;673654;29;1357;-77
2022/03/22 00:46:03;;;;;;;16.70;13.40;;;;;;;7.00;77.41;102344.34;672700;29;4347;-78
2022/03/22 00:46:25;;;;;;;18.00;14.27;;;;;;;6.93;77.49;102344.97;674314;29;1732;-77
2022/03/22 00:46:45;;;;;;;18.48;14.55;;;;;;;6.99;76.94;102345.19;674283;29;1620;-77
2022/03/22 00:47:07;;;;;;;17.20;13.85;;;;;;;7.08;77.55;102347.25;675805;29;1472;-78
2022/03/22 00:47:28;;;;;;;18.80;14.63;;;;;;;6.99;77.64;102347.78;674138;29;1333;-78
2022/03/22 00:47:51;;;;;;;18.30;14.40;;;;;;;6.94;77.19;102336.34;677093;29;1127;-77
2022/03/22 00:48:14;;;;;;;17.92;14.02;;;;;;;6.88;77.26;102344.81;673884;29;1604;-78
2022/03/22 00:48:38;;;;;;;17.63;13.88;;;;;;;6.78;78.65;102342.66;671340;29;1213;-79
2022/03/22 00:49:02;;;;;;;17.60;13.88;;;;;;;6.71;77.66;102336.34;667965;29;4332;-77
2022/03/22 00:49:22;;;;;;;18.10;13.82;;;;;;;6.80;77.18;102336.72;669214;29;1601;-78
2022/03/22 00:49:43;;;;;;;18.50;14.10;;;;;;;6.89;76.58;102343.94;670475;29;1563;-78
2022/03/22 00:50:04;;;;;;;19.63;14.20;;;;;;;7.06;75.63;102336.81;672419;29;1418;-78
2022/03/22 00:50:47;;;;;;;19.90;13.98;;;;;;;7.04;76.37;102343.63;672782;29;1583;-77
2022/03/22 00:51:09;;;;;;;17.77;14.00;;;;;;;6.91;77.77;102339.72;674885;29;1283;-77
2022/03/22 00:51:33;;;;;;;17.65;14.68;;;;;;;7.01;76.41;102346.13;672395;29;1442;-78
2022/03/22 00:51:54;;;;;;;17.65;14.07;;;;;;;7.12;75.66;102342.22;670818;29;1226;-77
2022/03/22 00:52:15;;;;;;;19.93;14.47;;;;;;;7.27;74.88;102334.06;670471;29;4291;-79
2022/03/22 00:52:36;;;;;;;19.05;14.30;;;;;;;7.25;74.59;102340.91;672339;29;1567;-77
2022/03/22 00:52:57;;;;;;;19.40;14.45;;;;;;;7.29;75.29;102340.22;671164;29;1395;-78
2022/03/22 00:53:19;;;;;;;18.25;14.15;;;;;;;7.19;76.74;102345.03;669392;29;1444;-77
2022/03/22 00:53:39;;;;;;;18.08;14.73;;;;;;;7.05;77.34;102347.13;671250;29;1458;-77
2022/03/22 00:54:02;;;;;;;17.88;14.43;;;;;;;7.02;76.29;102342.72;673904;29;1506;-77
2022/03/22 00:54:23;;;;;;;19.08;14.52;;;;;;;6.94;76.16;102337.22;671597;29;1229;-77
2022/03/22 00:54:44;;;;;;;18.00;14.05;;;;;;;7.00;75.68;102344.34;671490;29;1468;-77
2022/03/22 00:55:05;;;;;;;18.65;14.50;;;;;;;7.03;77.45;102341.88;671440;29;4321;-78
2022/03/22 00:55:27;;;;;;;17.73;14.05;;;;;;;7.03;76.64;102347.06;672770;29;1351;-77
2022/03/22 00:55:48;;;;;;;19.02;14.18;;;;;;;7.08;75.08;102336.84;671463;29;1324;-78
2022/03/22 00:56:10;;;;;;;19.00;14.32;;;;;;;7.20;74.37;102336.38;674158;29;1337;-78
2022/03/22 00:56:31;;;;;;;18.63;13.95;;;;;;;7.23;74.35;102336.53;676980;29;1472;-78
2022/03/22 00:56:54;;;;;;;17.92;13.68;;;;;;;7.28;74.08;102340.16;675452;29;1475;-77
2022/03/22 00:57:14;;;;;;;18.17;14.23;;;;;;;7.35;73.47;102336.06;676867;28;1519;-77
2022/03/22 00:57:35;;;;;;;19.10;14.73;;;;;;;7.36;75.33;102343.03;672387;29;1233;-77
2022/03/22 00:57:56;;;;;;;21.70;15.03;;;;;;;7.31;74.04;102346.38;673779;29;1510;-78
2022/03/22 00:58:16;;;;;;;21.58;15.38;;;;;;;7.29;74.81;102341.94;670535;29;4353;-77
2022/03/22 00:58:37;;;;;;;19.27;14.82;;;;;;;7.22;74.90;102339.94;674041;29;1652;-77
2022/03/22 01:00:18;;;;;;;18.30;14.00;;;;;;;7.15;75.75;102349.25;674722;29;1607;-77
2022/03/22 01:00:39;;;;;;;19.38;14.45;;;;;;;7.22;73.97;102339.94;674440;29;1786;-78
2022/03/22 01:01:00;;;;;;;22.45;15.20;;;;;;;7.31;73.76;102338.56;674845;29;4392;-77
2022/03/22 01:01:21;;;;;;;22.42;16.55;;;;;;;7.32;73.21;102334.22;675312;29;1498;-79
2022/03/22 01:01:41;;;;;;;24.27;17.07;;;;;;;7.32;73.34;102352.44;673663;29;1200;-77
2022/03/22 01:02:01;;;;;;;24.30;17.17;;;;;;;7.26;72.40;102341.84;674591;29;1285;-77
2022/03/22 01:02:23;;;;;;;22.92;16.83;;;;;;;7.21;72.52;102330.38;672000;29;1621;-78
2022/03/22 01:02:48;;;;;;;23.60;16.67;;;;;;;7.26;72.92;102336.63;672041;29;1603;-77
2022/03/22 01:03:09;;;;;;;23.73;16.60;;;;;;;7.28;72.48;102340.16;674372;29;1217;-78
2022/03/22 01:03:30;;;;;;;23.80;16.45;;;;;;;7.28;73.27;102345.34;674812;29;1470;-77
2022/03/22 01:03:50;;;;;;;22.40;16.63;;;;;;;7.31;73.55;102348.06;676090;29;1194;-78
2022/03/22 01:04:11;;;;;;;23.27;16.65;;;;;;;7.37;73.21;102350.03;676599;29;4646;-77
2022/03/22 01:04:31;;;;;;;26.77;17.92;;;;;;;7.41;72.57;102351.91;678356;29;1661;-79
2022/03/22 01:04:52;;;;;;;28.77;19.13;;;;;;;7.40;72.51;102358.81;676982;29;1934;-78
2022/03/22 01:05:15;;;;;;;27.27;17.58;;;;;;;7.38;72.75;102347.47;677949;29;2042;-77
2022/03/22 01:05:37;;;;;;;25.23;17.77;;;;;;;7.40;72.01;102343.19;677346;29;1302;-78
2022/03/22 01:05:59;;;;;;;27.50;18.38;;;;;;;7.41;72.58;102339.75;676475;29;1335;-77
2022/03/22 01:06:19;;;;;;;27.77;18.08;;;;;;;7.40;72.42;102343.19;675256;29;1530;-78
2022/03/22 01:06:40;;;;;;;26.05;17.90;;;;;;;7.40;72.59;102340.59;673670;29;1899;-78
2022/03/22 01:07:03;;;;;;;27.20;18.45;;;;;;;7.44;71.79;102346.81;670779;29;4339;-78
2022/03/22 01:07:25;;;;;;;28.48;18.60;;;;;;;7.39;71.21;102338.81;671543;29;1785;-77
2022/03/22 01:08:00;;;;;;;26.60;18.70;;;;;;;7.43;72.13;102340.69;672132;29;985;-77
2022/03/22 01:08:21;;;;;;;26.30;18.77;;;;;;;7.40;72.13;102340.59;669700;29;1666;-78
2022/03/22 01:08:41;;;;;;;28.05;18.55;;;;;;;7.47;72.13;102347.78;674882;29;1638;-77
2022/03/22 01:09:01;;;;;;;26.55;18.23;;;;;;;7.42;72.52;102341.53;677715;29;2013;-77
2022/03/22 01:09:22;;;;;;;27.73;18.93;;;;;;;7.35;71.79;102338.66;678980;28;1510;-78
2022/03/22 01:09:42;;;;;;;27.88;19.17;;;;;;;7.36;71.64;102343.03;676726;29;1506;-77
2022/03/22 01:10:05;;;;;;;26.23;18.07;;;;;;;7.42;71.49;102338.94;675829;29;4407;-78
2022/03/22 01:10:28;;;;;;;26.63;18.05;;;;;;;7.49;71.20;102333.13;675986;29;1466;-78
2022/03/22 01:10:52;;;;;;;27.15;18.55;;;;;;;7.53;70.86;102335.81;676410;29;1425;-77
2022/03/22 01:11:13;;;;;;;27.17;18.05;;;;;;;7.55;70.67;102337.66;677923;29;1218;-78
2022/03/22 01:11:35;;;;;;;26.17;17.93;;;;;;;7.50;69.98;102342.69;677301;29;1593;-77
2022/03/22 01:11:57;;;;;;;26.70;17.95;;;;;;;7.48;70.71;102338.28;676669;29;1837;-78
2022/03/22 01:12:17;;;;;;;24.27;17.17;;;;;;;7.52;70.70;102337.53;677761;29;1590;-77
2022/03/22 01:12:40;;;;;;;22.67;16.77;;;;;;;7.46;69.72;102340.81;677924;29;936;-78
2022/03/22 01:13:01;;;;;;;24.60;17.27;;;;;;;7.47;70.21;102344.28;676432;29;4368;-78
2022/03/22 01:13:24;;;;;;;25.83;17.83;;;;;;;7.52;69.80;102329.75;675501;29;1297;-77
2022/03/22 01:13:46;;;;;;;25.73;17.08;;;;;;;7.50;69.78;102337.50;671618;29;1765;-77
2022/03/22 01:14:07;;;;;;;23.65;16.52;;;;;;;7.54;70.54;102333.25;668974;29;1873;-78
2022/03/22 01:14:28;;;;;;;23.70;17.00;;;;;;;7.48;70.18;102339.16;669460;29;1468;-78
2022/03/22 01:14:52;;;;;;;26.23;18.10;;;;;;;7.46;70.89;102332.09;668730;29;937;-77
2022/03/22 01:15:15;;;;;;;25.67;17.55;;;;;;;7.55;71.21;102339.38;669393;29;1072;-77
2022/03/22 01:15:36;;;;;;;24.13;17.42;;;;;;;7.62;70.51;102338.75;672280;29;1722;-78
2022/03/22 01:15:58;;;;;;;24.23;17.50;;;;;;;7.54;70.87;102332.38;672574;29;4412;-77
2022/03/22 01:16:18;;;;;;;23.57;16.80;;;;;;;7.50;70.77;102341.78;670208;29;1678;-78
2022/03/22 01:16:39;;;;;;;22.58;16.23;;;;;;;7.53;70.54;102335.81;671282;29;3938;-79
2022/03/22 01:17:00;;;;;;;23.00;16.77;;;;;;;7.57;70.54;102340.28;671072;29;1330;-78
2022/03/22 01:17:20;;;;;;;23.25;16.58;;;;;;;7.52;70.14;102339.25;672983;29;1117;-77
2022/03/22 01:17:45;;;;;;;23.33;16.33;;;;;;;7.42;69.74;102333.75;673062;29;1393;-78
2022/03/22 01:18:09;;;;;;;23.85;16.27;;;;;;;7.44;70.83;102342.47;674275;29;1496;-78
2022/03/22 01:18:33;;;;;;;24.25;16.27;;;;;;;7.54;70.77;102343.66;674270;29;1498;-77
2022/03/22 01:18:53;;;;;;;22.67;16.07;;;;;;;7.67;70.06;102334.59;674888;29;1795;-77
2022/03/22 01:19:13;;;;;;;21.80;16.15;;;;;;;7.64;69.60;102339.66;670829;29;6185;-77
2022/03/22 01:19:35;;;;;;;24.50;16.03;;;;;;;7.59;69.99;102326.50;674919;29;1635;-77
2022/03/22 01:19:56;;;;;;;22.70;16.05;;;;;;;7.60;70.17;102332.59;670186;29;1448;-77
2022/03/22 01:20:20;;;;;;;23.83;16.50;;;;;;;7.59;70.18;102341.25;670565;29;1616;-77
2022/03/22 01:20:51;;;;;;;23.95;16.27;;;;;;;7.49;69.32;102335.72;670589;29;1824;-77
2022/03/22 01:21:12;;;;;;;22.33;15.77;;;;;;;7.40;70.01;102340.59;672109;29;1662;-77
2022/03/22 01:21:33;;;;;;;21.95;15.27;;;;;;;7.46;70.74;102340.81;671775;29;1695;-78
2022/03/22 01:21:54;;;;;;;22.17;15.47;;;;;;;7.45;71.11;102344.25;669649;29;1522;-77
2022/03/22 01:22:16;;;;;;;20.90;15.75;;;;;;;7.33;73.67;102339.47;668354;29;4285;-78
2022/03/22 01:22:38;;;;;;;22.08;16.02;;;;;;;7.30;73.13;102339.38;668530;29;1358;-78
2022/03/22 01:23:02;;;;;;;24.48;16.20;;;;;;;7.39;72.08;102333.59;671894;29;1810;-78
2022/03/22 01:23:23;;;;;;;23.10;15.93;;;;;;;7.43;71.23;102335.47;667932;29;1544;-78
2022/03/22 01:23:44;;;;;;;22.65;15.65;;;;;;;7.37;70.65;102334.41;672222;29;1478;-77
2022/03/22 01:24:06;;;;;;;21.90;15.90;;;;;;;7.33;70.44;102336.00;672413;29;1605;-78
2022/03/22 01:24:26;;;;;;;21.67;15.85;;;;;;;7.30;69.85;102333.31;670395;29;1664;-77
2022/03/22 01:24:48;;;;;;;22.23;15.67;;;;;;;7.39;70.17;102336.22;670487;29;1927;-78
2022/03/22 01:25:10;;;;;;;24.00;15.60;;;;;;;7.33;72.04;102349.03;671419;29;4335;-77
2022/03/22 01:25:32;;;;;;;22.63;15.52;;;;;;;7.23;72.63;102336.53;671215;29;1541;-77
2022/03/22 01:25:53;;;;;;;22.08;16.00;;;;;;;7.13;72.95;102333.59;677017;29;1512;-78
2022/03/22 01:26:13;;;;;;;22.15;16.20;;;;;;;7.11;72.31;102331.75;676991;29;1515;-77
2022/03/22 01:26:34;;;;;;;22.52;16.00;;;;;;;7.20;72.39;102350.31;671417;29;1753;-77
2022/03/22 01:26:54;;;;;;;22.03;15.83;;;;;;;7.16;73.42;102332.81;676595;29;1431;-77
2022/03/22 01:27:15;;;;;;;20.50;15.77;;;;;;;7.07;74.26;102330.75;677719;29;1547;-77
2022/03/22 01:27:36;;;;;;;20.75;16.15;;;;;;;7.09;73.21;102331.69;673937;29;1885;-77
2022/03/22 01:27:57;;;;;;;20.80;15.40;;;;;;;7.18;72.92;102332.88;671267;29;1479;-78
2022/03/22 01:28:18;;;;;;;20.58;15.73;;;;;;;7.12;73.20;102328.34;669081;29;4479;-77
2022/03/22 01:28:39;;;;;;;21.30;15.93;;;;;;;7.16;72.95;102328.47;667945;29;1839;-78
2022/03/22 01:28:59;;;;;;;19.67;15.33;;;;;;;7.21;72.80;102335.56;669078;29;1652;-78
2022/03/22 01:29:19;;;;;;;20.00;15.40;;;;;;;7.29;72.03;102336.72;674186;29;1692;-78
2022/03/22 01:29:40;;;;;;;20.70;15.73;;;;;;;7.34;71.54;102329.97;672629;28;1527;-77
2022/03/22 01:30:01;;;;;;;21.42;16.08;;;;;;;7.25;72.87;102334.84;672964;29;1697;-79
2022/03/22 01:30:23;;;;;;;22.27;15.80;;;;;;;7.16;74.47;102336.28;670404;29;1363;-78
2022/03/22 01:30:44;;;;;;;21.45;15.80;;;;;;;7.09;74.84;102334.31;674554;29;1189;-78
2022/03/22 01:31:07;;;;;;;21.42;15.65;;;;;;;7.09;73.12;102333.41;672113;29;4327;-78
2022/03/22 01:31:31;;;;;;;21.45;16.08;;;;;;;7.16;73.06;102332.81;670811;29;1243;-78
2022/03/22 01:31:51;;;;;;;21.00;15.57;;;;;;;7.18;73.63;102332.88;671364;29;1491;-77
2022/03/22 01:32:12;;;;;;;20.87;15.50;;;;;;;7.15;73.16;102331.03;673667;29;1500;-78
2022/03/22 01:32:34;;;;;;;20.35;15.32;;;;;;;7.16;73.61;102333.69;675623;29;1304;-78
2022/03/22 01:32:55;;;;;;;21.85;15.18;;;;;;;7.11;73.45;102336.97;674161;29;1546;-77
2022/03/22 01:33:16;;;;;;;20.42;15.02;;;;;;;7.19;72.51;102332.03;673521;29;1332;-78
2022/03/22 01:33:37;;;;;;;19.10;15.10;;;;;;;7.22;72.28;102332.16;670375;29;1409;-77
2022/03/22 01:34:00;;;;;;;18.85;14.93;;;;;;;7.09;69.16;102334.31;670708;29;4344;-78
2022/03/22 01:34:23;;;;;;;20.53;14.90;;;;;;;7.02;69.50;102331.41;671476;29;1680;-78
2022/03/22 01:34:44;;;;;;;20.48;14.60;;;;;;;6.97;70.85;102326.06;674584;29;1508;-77
2022/03/22 01:35:06;;;;;;;19.90;15.00;;;;;;;6.93;74.32;102337.16;674878;29;1394;-77
2022/03/22 01:35:27;;;;;;;20.10;15.23;;;;;;;6.85;73.93;102331.66;677160;29;1412;-77
2022/03/22 01:35:47;;;;;;;19.43;15.00;;;;;;;6.90;72.67;102330.13;680006;29;1175;-77
2022/03/22 01:36:08;;;;;;;19.47;15.07;;;;;;;6.90;74.22;102329.25;679368;29;1655;-77
2022/03/22 01:36:30;;;;;;;20.73;15.50;;;;;;;6.89;75.06;102335.28;679791;28;1429;-78
2022/03/22 01:36:50;;;;;;;20.98;15.77;;;;;;;6.81;75.58;102328.09;681315;28;1454;-78
2022/03/22 01:37:11;;;;;;;20.00;15.17;;;;;;;6.81;74.17;102328.09;678890;28;4404;-78
2022/03/22 01:37:32;;;;;;;19.60;14.82;;;;;;;6.99;74.04;102332.19;676943;29;1580;-78
2022/03/22 01:37:55;;;;;;;19.83;14.90;;;;;;;7.10;72.13;102354.28;671726;29;1446;-78
2022/03/22 01:38:15;;;;;;;19.23;15.05;;;;;;;7.06;73.72;102334.19;672055;29;1477;-79
2022/03/22 01:38:36;;;;;;;21.27;15.18;;;;;;;6.97;75.33;102333.84;674220;29;1598;-77
2022/03/22 01:38:56;;;;;;;21.67;16.00;;;;;;;6.92;73.95;102330.19;675254;29;1484;-78
2022/03/22 01:39:17;;;;;;;19.17;15.57;;;;;;;6.99;73.43;102337.38;666045;29;4841;-77
2022/03/22 01:39:37;;;;;;;18.90;15.43;;;;;;;7.06;72.82;102333.28;666184;29;1704;-78
2022/03/22 01:39:58;;;;;;;19.38;15.35;;;;;;;7.05;74.62;102329.81;665756;29;4309;-77
2022/03/22 01:40:21;;;;;;;19.30;15.13;;;;;;;6.95;72.71;102352.00;664159;29;1382;-79
2022/03/22 01:40:42;;;;;;;19.85;15.60;;;;;;;6.94;73.65;102337.22;671119;29;1758;-77
2022/03/22 01:41:03;;;;;;;20.23;14.75;;;;;;;6.95;73.59;102330.28;672889;29;1877;-78
2022/03/22 01:41:24;;;;;;;19.53;14.37;;;;;;;6.99;72.80;102329.56;671899;29;1850;-77
2022/03/22 01:41:44;;;;;;;19.17;15.25;;;;;;;7.05;72.67;102327.22;671728;29;1314;-78
2022/03/22 01:42:05;;;;;;;19.40;15.00;;;;;;;7.08;71.18;102327.31;674027;29;1393;-78
2022/03/22 01:42:25;;;;;;;19.27;14.52;;;;;;;7.06;71.03;102323.78;673593;29;1173;-77
2022/03/22 01:42:49;;;;;;;18.83;14.73;;;;;;;6.95;73.38;102341.59;673713;29;1389;-78
2022/03/22 01:43:10;;;;;;;21.50;15.32;;;;;;;6.82;72.77;102327.22;675623;29;4283;-79
2022/03/22 01:43:33;;;;;;;20.65;14.93;;;;;;;6.84;72.84;102336.81;676546;29;1452;-78